GMI weather

Goomeri Oval Helicopter Landing Site
Goomeri, Queensland, Australia

Public forecast

Using degrees Celsius for public forecast. Weather courtesy of forecast.io.

Closest aviation weather report (METAR) to Goomeri Oval Helicopter Landing Site

Closest report is Kingaroy Airport, 27.0 nm (49.9 km) SSW. Retrieved 2019/12/09 23:00 UTC (28 minutes ago):

YKRY 092300Z AUTO 36009KT 9999 // BKN027 26/17 Q1020

Closest aviation forecast (TAF) to Goomeri Oval Helicopter Landing Site

Closest forecast is Brisbane International Airport, 91.7 nm (169.8 km) SE. Retrieved 2019/12/09 18:40 UTC (5 hours ago):

TAF YBBN 091708Z 0918/1100 33006KT 9000 FU SCT018 FM092300 02014KT 9999 FU FEW030 FM100900 36012KT 9999 FU SCT015 BKN025 FM102300 02012KT 9999 FU FEW030